createdAt,value
2023-02-14T00:00:29.530Z,8.77
2023-02-14T00:05:32.560Z,8.03
2023-02-14T00:10:36.969Z,9.30
2023-02-14T00:15:40.030Z,10.67
2023-02-14T00:20:43.123Z,10.20
2023-02-14T00:25:47.463Z,10.10
2023-02-14T00:30:50.585Z,9.87
2023-02-14T00:35:53.585Z,10.47
2023-02-14T00:40:58.845Z,8.77
2023-02-14T00:46:02.040Z,9.03
2023-02-14T00:51:05.268Z,8.53
2023-02-14T00:56:09.807Z,8.47
2023-02-14T01:01:13.454Z,8.53
2023-02-14T01:06:17.004Z,8.63
2023-02-14T01:11:24.295Z,8.20
2023-02-14T01:16:30.995Z,9.50
2023-02-14T01:21:35.364Z,8.07
2023-02-14T01:26:41.029Z,9.10
2023-02-14T01:31:48.412Z,9.00
2023-02-14T01:36:51.449Z,8.83
2023-02-14T01:41:56.702Z,9.03
2023-02-14T01:47:03.418Z,8.83
2023-02-14T01:52:12.691Z,8.53
2023-02-14T01:57:21.903Z,7.97
2023-02-14T02:02:25.110Z,7.63
2023-02-14T02:07:30.760Z,8.17
2023-02-14T02:12:36.842Z,7.70
2023-02-14T02:17:50.119Z,7.33
2023-02-14T02:23:17.185Z,7.20
2023-02-14T02:28:44.877Z,7.40
2023-02-14T02:34:14.825Z,7.20
2023-02-14T02:39:35.599Z,6.97
2023-02-14T02:44:46.698Z,6.93
2023-02-14T02:50:15.253Z,7.50
2023-02-14T02:55:25.928Z,6.43
2023-02-14T03:00:31.259Z,7.27
2023-02-14T03:05:36.842Z,7.23
2023-02-14T03:10:41.384Z,7.83
2023-02-14T03:16:04.262Z,8.03
2023-02-14T03:21:20.630Z,8.30
2023-02-14T03:26:31.297Z,7.63
2023-02-14T03:31:43.219Z,8.60
2023-02-14T03:36:51.892Z,8.23
2023-02-14T03:42:06.054Z,8.23
2023-02-14T03:47:12.922Z,10.67
2023-02-14T03:52:17.161Z,13.73
2023-02-14T03:57:26.137Z,10.80
2023-02-14T04:02:35.816Z,13.47
2023-02-14T04:07:47.423Z,9.47
2023-02-14T04:12:52.067Z,9.90
2023-02-14T04:18:12.760Z,11.40
2023-02-14T04:23:15.832Z,11.07
2023-02-14T04:28:20.252Z,12.63
2023-02-14T04:33:23.369Z,11.40
2023-02-14T04:38:26.491Z,16.43
2023-02-14T04:43:30.816Z,12.10
2023-02-14T04:48:34.033Z,22.90
2023-02-14T04:53:40.334Z,19.73
2023-02-14T04:58:44.756Z,13.73
2023-02-14T05:03:47.747Z,16.10
2023-02-14T05:08:50.749Z,10.23
2023-02-14T05:13:55.154Z,10.53
2023-02-14T05:18:58.293Z,11.83
2023-02-14T05:24:01.712Z,13.27
2023-02-14T05:29:06.250Z,9.63
2023-02-14T05:34:09.268Z,9.47
2023-02-14T05:39:14.549Z,9.10
2023-02-14T05:44:18.931Z,9.33
2023-02-14T05:49:21.967Z,9.70
2023-02-14T05:54:24.939Z,9.47
2023-02-14T05:59:29.280Z,10.57
2023-02-14T06:04:32.292Z,9.70
2023-02-14T06:09:35.448Z,9.20
2023-02-14T06:14:41.436Z,8.30
2023-02-14T06:19:44.446Z,8.20
2023-02-14T06:24:47.460Z,9.53
2023-02-14T06:29:52.075Z,8.50
2023-02-14T06:34:55.185Z,9.00
2023-02-14T06:39:58.113Z,9.33
2023-02-14T06:45:02.584Z,8.63
2023-02-14T06:50:06.303Z,8.87
2023-02-14T06:55:11.825Z,10.70
2023-02-14T07:00:16.983Z,12.27
2023-02-14T07:05:19.996Z,10.53
2023-02-14T07:10:22.911Z,13.20
2023-02-14T07:15:27.622Z,11.17
2023-02-14T07:20:30.829Z,11.27
2023-02-14T07:25:34.468Z,11.20
2023-02-14T07:30:38.930Z,11.43
2023-02-14T07:35:42.185Z,12.60
2023-02-14T07:40:45.122Z,10.70
2023-02-14T07:45:49.509Z,11.17
2023-02-14T07:50:52.752Z,11.67
2023-02-14T07:55:55.869Z,11.63
2023-02-14T08:01:01.056Z,12.83
2023-02-14T08:06:04.479Z,15.07
2023-02-14T08:11:07.440Z,15.17
2023-02-14T08:16:12.705Z,17.20
2023-02-14T08:21:18.237Z,17.57
2023-02-14T08:26:21.337Z,19.47
2023-02-14T08:31:35.610Z,18.37
2023-02-14T08:36:39.190Z,19.77
2023-02-14T08:41:42.184Z,21.50
2023-02-14T08:46:46.745Z,21.67
2023-02-14T08:51:52.007Z,21.60
2023-02-14T08:56:55.174Z,23.70
2023-02-14T09:02:00.186Z,24.13
2023-02-14T09:07:04.582Z,25.50
2023-02-14T09:12:09.417Z,24.30
2023-02-14T09:17:15.219Z,24.50
2023-02-14T09:22:21.269Z,26.10
2023-02-14T09:27:24.494Z,24.93
2023-02-14T09:32:29.423Z,23.33
2023-02-14T09:37:50.097Z,23.00
2023-02-14T09:43:02.149Z,21.90
2023-02-14T09:48:11.940Z,20.93
2023-02-14T09:53:23.906Z,20.33
2023-02-14T09:58:34.352Z,18.20
2023-02-14T10:04:03.810Z,19.33
2023-02-14T10:09:17.482Z,18.00
2023-02-14T10:14:23.781Z,16.97
2023-02-14T10:19:33.549Z,16.73
2023-02-14T10:24:41.433Z,16.83
2023-02-14T10:29:44.690Z,17.63
2023-02-14T10:34:51.624Z,17.07
2023-02-14T10:40:20.895Z,17.03
2023-02-14T10:45:32.217Z,17.83
2023-02-14T10:50:44.958Z,16.17
2023-02-14T10:55:55.032Z,16.43
2023-02-14T11:01:03.513Z,16.30
2023-02-14T11:06:09.665Z,15.90
2023-02-14T11:11:20.703Z,16.10
2023-02-14T11:16:31.761Z,15.47
2023-02-14T11:21:40.319Z,16.27
2023-02-14T11:26:47.846Z,17.13
2023-02-14T11:31:51.924Z,16.43
2023-02-14T11:36:56.831Z,16.30
2023-02-14T11:42:05.334Z,16.97
2023-02-14T11:47:20.979Z,16.57
2023-02-14T11:52:26.823Z,17.73
2023-02-14T11:57:34.639Z,16.23
2023-02-14T12:02:40.473Z,17.13
2023-02-14T12:07:47.168Z,17.63
2023-02-14T12:12:51.969Z,16.60
2023-02-14T12:18:03.974Z,18.33
2023-02-14T12:23:16.272Z,16.93
2023-02-14T12:28:24.630Z,17.47
2023-02-14T12:33:28.611Z,17.93
2023-02-14T12:38:43.478Z,16.43
2023-02-14T12:43:50.810Z,16.90
2023-02-14T12:49:12.547Z,17.43
2023-02-14T12:54:37.667Z,15.63
2023-02-14T12:59:53.701Z,16.90
2023-02-14T13:05:02.765Z,17.20
2023-02-14T13:10:16.207Z,16.50
2023-02-14T13:15:29.561Z,16.87
2023-02-14T13:20:43.842Z,16.80
2023-02-14T13:25:53.257Z,16.63
2023-02-14T13:30:57.579Z,15.77
2023-02-14T13:36:04.089Z,17.00
2023-02-14T13:41:09.799Z,17.03
2023-02-14T13:46:14.965Z,16.10
2023-02-14T13:51:18.059Z,16.27
2023-02-14T13:56:35.993Z,16.57
2023-02-14T14:01:42.322Z,16.70
2023-02-14T14:07:18.021Z,15.87
2023-02-14T14:12:45.245Z,17.30
2023-02-14T14:18:33.076Z,17.00
2023-02-14T14:23:38.607Z,16.70
2023-02-14T14:28:47.229Z,17.03
2023-02-14T14:34:00.566Z,16.47
2023-02-14T14:39:03.657Z,16.77
2023-02-14T14:44:08.572Z,17.30
2023-02-14T14:49:13.288Z,16.40
2023-02-14T14:54:19.276Z,16.13
2023-02-14T14:59:31.590Z,16.40
2023-02-14T15:04:36.772Z,16.70
2023-02-14T15:09:43.920Z,16.73
2023-02-14T15:14:54.730Z,16.83
2023-02-14T15:20:01.554Z,16.40
2023-02-14T15:25:10.901Z,18.23
2023-02-14T15:30:26.645Z,18.10
2023-02-14T15:35:33.180Z,17.87
2023-02-14T15:40:38.879Z,18.10
2023-02-14T15:45:45.217Z,17.93
2023-02-14T15:50:50.793Z,18.00
2023-02-14T15:55:54.518Z,18.07
2023-02-14T16:01:00.777Z,17.73
2023-02-14T16:06:05.910Z,17.57
2023-02-14T16:11:17.945Z,17.73
2023-02-14T16:16:22.571Z,17.83
2023-02-14T16:21:27.965Z,18.00
2023-02-14T16:26:31.908Z,18.93
2023-02-14T16:31:40.217Z,17.97
2023-02-14T16:36:44.475Z,18.73
2023-02-14T16:41:49.629Z,17.93
2023-02-14T16:46:54.151Z,18.00
2023-02-14T16:51:57.804Z,17.70
2023-02-14T16:57:04.278Z,18.17
2023-02-14T17:02:09.174Z,18.30
2023-02-14T17:07:14.160Z,18.23
2023-02-14T17:12:22.014Z,19.00
2023-02-14T17:17:27.088Z,18.43
2023-02-14T17:22:32.813Z,18.37
2023-02-14T17:27:36.035Z,18.87
2023-02-14T17:32:40.452Z,18.40
2023-02-14T17:37:43.812Z,17.83
2023-02-14T17:42:46.838Z,18.23
2023-02-14T17:47:51.260Z,18.63
2023-02-14T17:52:55.966Z,18.33
2023-02-14T17:57:58.962Z,21.40
2023-02-14T18:03:03.918Z,19.10
2023-02-14T18:08:06.960Z,18.80
2023-02-14T18:13:10.001Z,18.33
2023-02-14T18:18:14.638Z,18.87
2023-02-14T18:23:17.653Z,17.37
2023-02-14T18:28:24.956Z,19.17
2023-02-14T18:33:29.372Z,19.03
2023-02-14T18:38:32.410Z,19.20
2023-02-14T18:43:36.577Z,19.00
2023-02-14T18:48:41.383Z,18.03
2023-02-14T18:53:45.351Z,18.27
2023-02-14T18:58:50.705Z,19.93
2023-02-14T19:03:55.368Z,18.00
2023-02-14T19:09:01.824Z,21.70
2023-02-14T19:14:09.993Z,18.00
2023-02-14T19:19:14.457Z,18.67
2023-02-14T19:24:19.457Z,19.30
2023-02-14T19:29:23.598Z,18.53
2023-02-14T19:34:30.288Z,18.87
2023-02-14T19:39:33.623Z,18.93
2023-02-14T19:44:36.833Z,19.67
2023-02-14T19:49:41.217Z,18.67
2023-02-14T19:54:44.197Z,18.40
2023-02-14T19:59:47.274Z,19.70
2023-02-14T20:04:53.520Z,18.63
2023-02-14T20:09:56.573Z,19.33
2023-02-14T20:14:59.777Z,19.90
2023-02-14T20:20:04.874Z,20.67
2023-02-14T20:25:09.212Z,20.00
2023-02-14T20:30:13.426Z,19.80
2023-02-14T20:35:17.876Z,21.47
2023-02-14T20:40:21.140Z,19.77
2023-02-14T20:45:24.167Z,19.27
2023-02-14T20:50:31.658Z,20.10
2023-02-14T20:55:34.599Z,20.60
2023-02-14T21:00:37.858Z,20.70
2023-02-14T21:05:42.406Z,19.73
2023-02-14T21:10:45.384Z,19.03
2023-02-14T21:15:48.532Z,19.30
2023-02-14T21:20:54.593Z,17.87
2023-02-14T21:25:57.605Z,18.90
2023-02-14T21:31:04.970Z,19.70
2023-02-14T21:36:11.459Z,18.47
2023-02-14T21:41:16.925Z,18.37
2023-02-14T21:46:27.198Z,17.27
2023-02-14T21:51:32.239Z,17.83
2023-02-14T21:56:36.592Z,17.37
2023-02-14T22:01:41.501Z,19.80
2023-02-14T22:06:45.987Z,18.60
2023-02-14T22:11:49.010Z,18.43
2023-02-14T22:16:52.108Z,17.50
2023-02-14T22:21:56.558Z,18.30
2023-02-14T22:26:59.633Z,18.40
2023-02-14T22:32:02.747Z,18.40
2023-02-14T22:37:07.373Z,18.53
2023-02-14T22:42:11.100Z,19.60
2023-02-14T22:47:14.106Z,19.10
2023-02-14T22:52:18.546Z,17.77
2023-02-14T22:57:21.562Z,17.40
2023-02-14T23:02:24.531Z,16.07
2023-02-14T23:07:29.012Z,17.80
2023-02-14T23:12:49.539Z,17.53
2023-02-14T23:18:10.012Z,18.40
2023-02-14T23:23:14.427Z,17.33
2023-02-14T23:28:19.983Z,17.17
2023-02-14T23:33:22.905Z,17.83
2023-02-14T23:38:27.286Z,17.23
2023-02-14T23:43:30.441Z,19.47
2023-02-14T23:48:33.569Z,18.97
2023-02-14T23:53:38.157Z,18.47
2023-02-14T23:58:43.295Z,17.10
